Latest Weather Observations for Lajamanu

IDD60801

Issued at 5:01 pm CST Sunday 29 May 2016 (issued every 30 minutes, with the page automatically refreshed every 10 minutes)

About weather observations | Map of weather stations | Latest weather observations for NT | Other Formats
Station Details ID: 014829 Name: LAJAMANU AIRPORT Lat: -18.33 Lon: 130.64 Height: 315.6 m
Data from the previous 72 hours. | See also: Recent months at Lajamanu
Date/Time
CST
Temp
°C
App
Temp
°C
Dew
Point
Rel
Hum
%
Delta-T
°C
Wind Press
QNH
hPa
Press
MSL
hPa
Rain
since 9 am
mm
Dir
 
Spd
km/h
Gust
km/h
Spd
kts
Gust
kts
29/05:00pm 31.8 31.0 11.6 29 12.0 E 7 11 4 6 1012.4 1011.2 0.0
29/04:30pm 32.7 30.8 11.8 28 12.5 E 13 20 7 11 1012.5 1011.3 0.0
29/04:00pm 33.1 32.8 12.7 29 12.3 ENE 6 11 3 6 1012.4 1011.2 0.0
29/03:30pm 33.7 33.2 12.7 28 12.7 NNE 7 19 4 10 1012.6 1011.4 0.0
29/03:00pm 33.2 31.4 12.2 28 12.6 NE 13 22 7 12 1012.9 1011.6 0.0
29/02:30pm 33.6 31.6 12.6 28 12.7 NNE 15 24 8 13 1013.3 1012.0 0.0
29/02:00pm 33.2 30.7 12.2 28 12.6 NE 17 24 9 13 1013.8 1012.5 0.0
29/01:30pm 31.8 29.8 11.6 29 12.0 NE 13 22 7 12 1014.4 1013.2 0.0
29/01:00pm 31.1 29.0 11.0 29 11.8 NE 13 20 7 11 1015.0 1013.8 0.0
29/12:30pm 30.8 28.2 10.7 29 11.7 NNE 15 22 8 12 1015.3 1014.1 0.0
29/12:00pm 30.0 27.1 9.5 28 11.6 NE 15 20 8 11 1015.6 1014.4 0.0
29/11:30am 29.5 26.6 9.6 29 11.3 NE 15 24 8 13 1016.3 1015.0 0.0
29/11:00am 28.4 25.0 9.2 30 10.8 NE 17 26 9 14 1016.9 1015.6 0.0
29/10:30am 27.3 23.7 8.2 30 10.5 ENE 17 24 9 13 1017.2 1016.0 0.0
29/10:00am 26.1 22.1 8.1 32 9.8 ENE 19 24 10 13 1017.4 1016.2 0.0
29/09:30am 23.3 19.8 7.4 36 8.4 E 15 20 8 11 1017.5 1016.3 0.0
29/09:00am 24.3 19.8 7.0 33 9.1 E 20 30 11 16 1017.2 1016.0 0.0
29/08:30am 23.6 20.0 8.5 38 8.2 ESE 17 20 9 11 1016.8 1015.5 0.0
29/08:00am 21.8 19.4 10.0 47 6.5 SE 13 17 7 9 1016.3 1015.0 0.0
29/07:30am 20.6 19.1 10.4 52 5.6 ESE 9 11 5 6 1015.8 1014.6 0.0
29/07:00am 20.5 18.5 10.3 52 5.6 E 11 13 6 7 1015.2 1014.0 0.0
29/06:30am 20.5 19.2 11.4 56 5.1 SSE 9 11 5 6 1015.1 1013.9 0.0
29/06:00am 20.1 18.4 11.3 57 4.9 E 11 13 6 7 1014.6 1013.4 0.0
29/05:30am 20.4 18.8 11.6 57 4.9 ESE 11 13 6 7 1014.4 1013.2 0.0
29/05:00am 20.5 19.2 11.2 55 5.2 SE 9 13 5 7 1014.2 1012.9 0.0
29/04:30am 20.5 19.2 11.2 55 5.2 ESE 9 11 5 6 1014.0 1012.7 0.0
29/04:00am 20.2 18.9 11.1 56 5.1 ESE 9 11 5 6 1014.0 1012.7 0.0
29/03:30am 20.4 19.4 11.1 55 5.2 SE 7 9 4 5 1013.8 1012.5 0.0
29/03:00am 20.8 19.9 11.2 54 5.4 E 7 9 4 5 1013.8 1012.5 0.0
29/02:30am 21.2 19.9 11.2 53 5.6 ESE 9 13 5 7 1013.7 1012.4 0.0
29/02:00am 21.3 20.3 11.1 52 5.7 SE 7 7 4 4 1013.8 1012.5 0.0
29/01:30am 22.0 20.7 11.4 51 6.0 SE 9 11 5 6 1013.8 1012.5 0.0
29/01:00am 21.7 20.3 10.8 50 6.1 SE 9 11 5 6 1013.9 1012.6 0.0
29/12:30am 22.2 22.0 10.4 47 6.6 SSE 2 7 1 4 1014.1 1012.8 0.0
29/12:00am 23.8 22.7 10.8 44 7.3 SE 7 11 4 6 1014.1 1012.8 0.0
 
Date/Time
CST
Temp
°C
App
Temp
°C
Dew
Point
Rel
Hum
%
Delta-T
°C
Wind Press
QNH
hPa
Press
MSL
hPa
Rain
since 9 am
mm
Dir
 
Spd
km/h
Gust
km/h
Spd
kts
Gust
kts
28/11:30pm 24.7 22.4 10.6 41 8.0 ESE 13 15 7 8 1014.0 1012.7 0.0
28/11:00pm 25.4 23.2 10.8 40 8.3 ESE 13 15 7 8 1014.0 1012.7 0.0
28/10:30pm 25.1 23.2 10.6 40 8.2 ESE 11 13 6 7 1014.0 1012.7 0.0
28/10:00pm 25.4 23.9 10.4 39 8.5 ESE 9 13 5 7 1014.1 1012.8 0.0
28/09:30pm 25.7 23.5 10.7 39 8.5 ESE 13 17 7 9 1014.1 1012.8 0.0
28/09:00pm 25.5 23.5 10.1 38 8.7 ESE 11 13 6 7 1014.1 1012.8 0.0
28/08:30pm 26.2 24.7 10.4 37 9.0 ESE 9 13 5 7 1014.1 1012.8 0.0
28/08:00pm 26.9 24.9 10.2 35 9.5 SE 11 13 6 7 1013.8 1012.5 0.0
28/07:30pm 27.2 25.8 10.8 36 9.4 SE 9 11 5 6 1013.6 1012.3 0.0
28/07:00pm 27.6 26.3 9.9 33 10.0 SE 7 9 4 5 1013.3 1012.0 0.0
28/06:30pm 29.4 28.1 10.0 30 11.1 SE 7 9 4 5 1012.9 1011.6 0.0
28/06:00pm 31.2 29.5 10.0 27 12.2 SE 9 11 5 6 1012.5 1011.3 0.0
28/05:30pm 32.3 30.4 10.4 26 12.8 E 11 20 6 11 1012.3 1011.1 0.0
28/05:00pm 32.8 31.2 10.2 25 13.2 SSE 9 13 5 7 1012.2 1011.0 0.0
28/04:30pm 33.0 31.1 10.4 25 13.2 ENE 11 17 6 9 1012.1 1010.9 0.0
28/04:00pm 33.2 31.1 9.9 24 13.5 E 11 19 6 10 1012.2 1011.0 0.0
28/03:30pm 32.9 30.8 9.7 24 13.4 NE 11 20 6 11 1012.1 1010.9 0.0
28/03:00pm 32.9 30.6 10.3 25 13.2 E 13 22 7 12 1012.4 1011.2 0.0
28/02:30pm 31.6 28.7 9.8 26 12.5 NE 15 24 8 13 1012.8 1011.5 0.0
28/02:00pm 31.9 29.3 10.6 27 12.4 ENE 15 20 8 11 1013.3 1012.0 0.0
28/01:30pm 31.7 28.6 10.4 27 12.4 ESE 17 26 9 14 1013.9 1012.6 0.0
28/01:00pm 31.2 28.3 11.1 29 11.8 ESE 17 32 9 17 1014.3 1013.0 0.0
28/12:30pm 30.3 27.3 10.8 30 11.3 E 17 26 9 14 1015.0 1013.8 0.0
28/12:00pm 29.6 26.0 10.7 31 10.9 E 20 30 11 16 1015.5 1014.3 0.0
28/11:30am 29.2 25.9 10.8 32 10.6 E 19 28 10 15 1016.0 1014.8 0.0
28/11:00am 27.8 23.7 10.1 33 10.1 E 22 32 12 17 1016.5 1015.2 0.0
28/10:30am 27.4 23.4 10.6 35 9.6 E 22 32 12 17 1016.7 1015.4 0.0
28/10:00am 26.6 22.4 11.1 38 8.9 E 24 33 13 18 1017.0 1015.7 0.0
28/09:30am 25.1 20.4 10.6 40 8.2 E 26 35 14 19 1017.0 1015.7 0.0
28/09:00am 24.5 20.3 11.1 43 7.6 E 24 35 13 19 1017.0 1015.7 0.0
28/08:30am 23.3 20.0 11.0 46 6.9 ESE 19 28 10 15 1016.8 1015.5 0.0
28/08:00am 21.7 19.2 11.1 51 5.9 ESE 15 20 8 11 1016.5 1015.2 0.0
28/07:30am 20.9 18.4 11.0 53 5.5 ESE 15 20 8 11 1016.2 1014.9 0.0
28/07:00am 20.9 18.3 10.7 52 5.7 E 15 20 8 11 1015.7 1014.5 0.0
28/06:30am 21.3 18.3 10.5 50 6.0 E 17 20 9 11 1015.4 1014.2 0.0
28/06:00am 21.9 19.2 10.4 48 6.4 SE 15 20 8 11 1015.5 1014.3 0.0
28/05:30am 22.2 19.5 10.4 47 6.5 ESE 15 20 8 11 1015.1 1013.9 0.0
28/05:00am 22.7 19.7 10.5 46 6.8 ESE 17 20 9 11 1014.9 1013.7 0.0
28/04:30am 22.7 20.0 10.5 46 6.8 SE 15 20 8 11 1014.7 1013.5 0.0
28/04:00am 22.5 20.6 10.6 47 6.6 SE 11 15 6 8 1014.5 1013.3 0.0
28/03:30am 23.3 21.2 11.0 46 6.9 SSE 13 19 7 10 1014.2 1012.9 0.0
28/03:00am 23.4 21.3 11.1 46 7.0 S 13 19 7 10 1014.0 1012.7 0.0
28/02:30am 22.9 21.4 10.7 46 6.8 S 9 15 5 8 1014.0 1012.7 0.0
28/02:00am 23.4 21.8 10.1 43 7.4 S 9 13 5 7 1014.0 1012.7 0.0
28/01:30am 23.6 21.8 9.6 41 7.7 SSW 9 11 5 6 1014.1 1012.8 0.0
28/01:00am 24.6 22.5 9.7 39 8.3 S 11 15 6 8 1014.1 1012.8 0.0
28/12:30am 24.9 23.0 9.2 37 8.7 SSE 9 15 5 8 1014.2 1012.9 0.0
28/12:00am 25.9 23.7 9.3 35 9.2 SSE 11 15 6 8 1014.1 1012.8 0.0
 
Date/Time
CST
Temp
°C
App
Temp
°C
Dew
Point
Rel
Hum
%
Delta-T
°C
Wind Press
QNH
hPa
Press
MSL
hPa
Rain
since 9 am
mm
Dir
 
Spd
km/h
Gust
km/h
Spd
kts
Gust
kts
27/11:30pm 26.2 24.3 9.1 34 9.5 SSE 9 13 5 7 1014.3 1013.0 0.0
27/11:00pm 25.6 23.9 9.8 37 8.8 S 9 13 5 7 1014.4 1013.2 0.0
27/10:30pm 25.5 23.9 8.9 35 9.1 SSE 7 9 4 5 1014.3 1013.0 0.0
27/10:00pm 26.0 24.4 8.9 34 9.4 SE 7 9 4 5 1014.3 1013.0 0.0
27/09:30pm 26.6 25.1 9.0 33 9.8 SSE 7 9 4 5 1014.2 1012.9 0.0
27/09:00pm 26.4 24.9 9.3 34 9.5 S 7 11 4 6 1013.9 1012.6 0.0
27/08:30pm 26.1 24.7 9.0 34 9.5 S 6 7 3 4 1013.7 1012.4 0.0
27/08:00pm 26.1 24.5 8.6 33 9.6 S 7 11 4 6 1013.4 1012.1 0.0
27/07:30pm 27.8 25.8 8.6 30 10.6 SSE 9 9 5 5 1013.1 1011.8 0.0
27/07:00pm 28.1 26.3 7.9 28 11.1 SSE 7 7 4 4 1012.9 1011.6 0.0
27/06:30pm 31.1 29.4 8.2 24 12.8 SE 7 9 4 5 1012.4 1011.2 0.0
27/06:00pm 33.3 31.5 8.0 21 14.3 SE 7 11 4 6 1012.2 1011.0 0.0
27/05:30pm 34.8 33.0 7.8 19 15.3 ESE 7 11 4 6 1012.0 1010.8 0.0
27/05:00pm 35.3 32.6 7.4 18 15.7 S 11 17 6 9 1012.0 1010.8 0.0
27/04:30pm 35.7 33.5 7.7 18 15.9 ENE 9 17 5 9 1011.9 1010.7 0.0
27/04:00pm 36.2 32.9 8.1 18 16.1 SE 15 26 8 14 1012.0 1010.8 0.0
27/03:30pm 35.5 32.6 8.3 19 15.6 SSE 13 20 7 11 1012.0 1010.8 0.0
27/03:00pm 35.8 33.4 8.6 19 15.7 ESE 11 20 6 11 1012.2 1011.0 0.0
27/02:30pm 36.0 33.5 8.0 18 16.0 ESE 11 22 6 12 1012.4 1011.2 0.0
27/02:00pm 35.7 33.3 8.5 19 15.6 SE 11 20 6 11 1013.1 1011.8 0.0
27/01:30pm 34.9 31.4 8.6 20 15.1 S 17 32 9 17 1013.5 1012.2 0.0
27/01:00pm 34.8 31.4 9.3 21 14.8 SE 17 32 9 17 1014.3 1013.0 0.0
27/12:30pm 34.7 31.5 9.9 22 14.5 SE 17 28 9 15 1014.9 1013.7 0.0
27/12:00pm 33.5 29.5 8.9 22 14.1 SSE 20 28 11 15 1015.5 1014.3 0.0
27/11:30am 33.5 29.8 9.5 23 13.9 SE 19 28 10 15 1015.8 1014.6 0.0
27/11:00am 32.3 29.2 10.4 26 12.8 SSE 17 26 9 14 1016.3 1015.0 0.0
27/10:30am 31.7 28.6 10.4 27 12.4 SE 17 24 9 13 1016.5 1015.2 0.0
27/10:00am 30.8 28.2 10.7 29 11.7 SE 15 20 8 11 1016.7 1015.4 0.0
27/09:30am 29.5 28.3 11.5 33 10.5 SSE 9 13 5 7 1016.8 1015.5 0.0
27/09:00am 27.5 26.8 11.9 38 9.1 SSE 7 13 4 7 1016.6 1015.3 0.0
27/08:30am 25.1 24.1 12.3 45 7.4 S 9 11 5 6 1016.4 1015.1 0.0
27/08:00am 22.9 23.2 12.2 51 6.2 SSW 2 7 1 4 1016.0 1014.8 0.0
27/07:30am 21.3 21.7 11.3 53 5.6 CALM 0 0 0 0 1015.8 1014.6 0.0
27/07:00am 21.8 22.2 11.2 51 6.0 CALM 0 0 0 0 1015.5 1014.3 0.0
27/06:30am 22.5 22.2 11.3 49 6.3 SSW 4 7 2 4 1015.3 1014.1 0.0
27/06:00am 23.2 22.5 11.3 47 6.7 SW 6 7 3 4 1015.1 1013.9 0.0
27/05:30am 23.8 23.0 11.2 45 7.1 SSW 6 7 3 4 1015.0 1013.8 0.0
27/05:00am 23.6 22.7 11.3 46 7.0 SSW 7 9 4 5 1014.7 1013.5 0.0
27/04:30am 23.0 22.2 11.7 49 6.4 S 7 9 4 5 1014.5 1013.3 0.0
27/04:00am 21.7 20.8 10.8 50 6.1 SW 6 7 3 4 1014.5 1013.3 0.0
27/03:30am 21.9 20.9 11.0 50 6.1 SW 7 9 4 5 1014.5 1013.3 0.0
27/03:00am 21.3 21.1 10.5 50 6.0 SSW 2 7 1 4 1014.6 1013.4 0.0
27/02:30am 21.5 21.0 10.6 50 6.1 W 4 7 2 4 1014.7 1013.5 0.0
27/02:00am 22.2 22.4 10.7 48 6.4 CALM 0 0 0 0 1014.7 1013.5 0.0
27/01:30am 23.0 22.1 10.8 46 6.8 WSW 6 7 3 4 1014.8 1013.6 0.0
27/01:00am 22.8 21.9 11.2 48 6.6 SW 7 13 4 7 1014.9 1013.7 0.0
27/12:30am 22.4 21.0 9.6 44 7.0 NW 7 9 4 5 1014.6 1013.4 0.0
27/12:00am 23.0 21.4 10.1 44 7.2 NNW 9 9 5 5 1014.5 1013.3 0.0
 
Date/Time
CST
Temp
°C
App
Temp
°C
Dew
Point
Rel
Hum
%
Delta-T
°C
Wind Press
QNH
hPa
Press
MSL
hPa
Rain
since 9 am
mm
Dir
 
Spd
km/h
Gust
km/h
Spd
kts
Gust
kts
26/11:30pm 23.3 21.8 10.7 45 7.1 NNW 9 9 5 5 1014.5 1013.3 0.0
26/11:00pm 22.9 22.3 10.3 45 7.0 NW 4 9 2 5 1014.6 1013.4 0.0
26/10:30pm 22.7 23.0 10.8 47 6.7 CALM 0 0 0 0 1014.8 1013.6 0.0
26/10:00pm 23.1 23.4 10.9 46 6.9 CALM 0 0 0 0 1014.7 1013.5 0.0
26/09:30pm 24.8 23.6 9.5 38 8.5 ENE 6 7 3 4 1014.6 1013.4 0.0
26/09:00pm 25.6 24.1 9.0 35 9.2 ENE 7 9 4 5 1014.7 1013.5 0.0
26/08:30pm 26.9 25.7 9.7 34 9.7 E 6 7 3 4 1014.4 1013.2 0.0
26/08:00pm 26.8 26.0 9.6 34 9.6 ESE 4 11 2 6 1014.3 1013.0 0.0
26/07:30pm 26.4 26.1 8.8 33 9.7 CALM 0 0 0 0 1013.9 1012.6 0.0
26/07:00pm 27.2 26.9 8.6 31 10.3 CALM 0 0 0 0 1013.5 1012.2 0.0
26/06:30pm 30.1 28.8 9.1 27 11.9 S 6 6 3 3 1013.2 1011.9 0.0
26/06:00pm 32.8 31.4 8.9 23 13.6 SSW 6 7 3 4 1013.0 1011.7 0.0
26/05:30pm 33.9 32.2 8.5 21 14.5 S 7 9 4 5 1012.8 1011.5 0.0

Other Formats:

Comma delimited format used in spreadsheet applications
http://www.bom.gov.au/fwo/IDD60801/IDD60801.94231.axf

JavaScript Object Notation format (JSON) in row-major order
http://www.bom.gov.au/fwo/IDD60801/IDD60801.94231.json